Ruby Junction, Minnesota
Current Conditions -  °F | °C
As of 1:53 PM on Monday 22 Dec 2014 (Local Time) from KHIB Reporting Station
Haze Haze  
Wind Chill: 27°   Ceiling: 300
Heat Index: 35°   Visibility: 5mi
Dew Point: 32°   Wind: 12mph
Humidity: 89%   Direction: 140°SE
Pressure: 29.64"   Gusts: NA
Location:  47.4158°N, 93.0053°W
Report Text: KHIB 221953Z AUTO 14010KT 5SM BR OVC003 02/00 A2964 RMK AO2 UPB1858E19B36E38SNE1858B19E36 SLP052 P0000 T00170000
Loading
Personal Weather Stations






























Interactive Weather Map New forecast layout! Learn more

10-Day Weather Forecast

Advertisements
Track Severe Weather on mobile